ケープタウン の空港の天気 - METARとTAF

ケープタウン国際空港 ( FACT / CPT ) - 南アフリカ ケープタウン
飛行場実況気象(Metar)
観測時間07/22 20:00 SAST (07/22 18:00 UTC)
風向・風速北北西 6m/s
視程10km以上
天気現象
なし
気温19℃
湿度56%
気圧1017hPa
METARFACT 221800Z 33011KT CAVOK 19/10 Q1017 NOSIG
過去の天気等 Google飛行場航空写真 Wunderground天気予報

過去48時間のMETAR

飛行場予報(TAF)
発表時間: 7/22 18:00 SAST (7/22 16:00 UTC)
予報対象時間: 22日20時 SAST ~ 24日2時 SAST
風向・風速北 7m/s
視程10km以上
なし
23日0時 SAST ~ 23日2時 SAST に徐々に
視程3000m
天気現象散在した霧
全天の8割程度の雲 雲底高度 210m
23日1時 SAST ~ 23日10時 SAST に 確率 40% で一時的に
視程600m
天気現象
全天を覆う雲 鉛直視程 30m
23日11時 SAST ~ 23日13時 SAST に徐々に
全天の4割程度の雲 雲底高度 460m
23日17時 SAST から
風向・風速北北西 7m/s
視程10km以上
全天の4割程度の雲 雲底高度 240m
全天の8割程度の雲 雲底高度 610m
23日17時 SAST ~ 24日2時 SAST に 確率 30% で一時的に
全天の8割程度の雲 雲底高度 240m
TAF FACT 221600Z 2218/2324 35013KT CAVOK
BECMG 2222/2224 3000 BCFG BKN007
PROB40 TEMPO 2223/2308 0600 FG VV001
BECMG 2309/2311 SCT015
FM231500 34013KT 9999 SCT008 BKN020
PROB30 TEMPO 2315/2324 BKN008 TX20/2312Z TN13/2306Z